Date,TemperatureHighF,TemperatureAvgF,TemperatureLowF,DewpointHighF,DewpointAvgF,DewpointLowF,HumidityHigh,HumidityAvg,HumidityLow,PressureMaxIn,PressureMinIn,WindSpeedMaxMPH,WindSpeedAvgMPH,GustSpeedMaxMPH,PrecipitationSumIn
2013-1-1,38.3,34.5,26.1,30.5,26.6,15.2,84,73,61,30.06,29.88,8,2,15,0.04
2013-1-2,31.9,26.2,20.0,18.8,16.0,12.6,79,65,54,30.23,30.04,7,2,19,0.00
2013-1-3,32.2,26.6,19.2,22.1,17.5,15.0,84,69,54,30.24,30.11,5,1,10,0.00
2013-1-4,36.3,33.4,30.8,24.3,22.9,20.7,71,65,59,30.13,30.01,11,3,17,0.00
2013-1-5,41.2,32.6,24.6,25.2,22.5,19.8,89,67,50,30.34,30.07,7,2,14,0.00
2013-1-6,45.6,36.6,27.8,32.0,28.4,24.4,91,73,53,30.26,30.01,8,1,12,0.00
2013-1-7,43.6,35.0,22.9,32.6,26.8,21.0,93,73,50,30.43,30.10,7,1,11,0.00
2013-1-8,47.2,30.4,19.7,33.0,25.4,18.3,97,83,56,30.45,30.37,4,0,8,0.00
2013-1-9,45.3,33.7,21.7,38.9,30.0,20.2,97,87,65,30.43,30.19,7,0,16,0.00
2013-1-10,47.6,39.9,30.5,32.7,27.9,25.3,87,63,46,30.57,30.29,8,2,13,0.00
2013-1-11,43.1,37.2,29.0,42.0,33.3,26.1,98,86,69,30.57,30.12,5,0,13,0.13
2013-1-12,45.9,42.2,37.9,44.2,41.4,37.1,99,97,92,30.20,30.11,3,0,7,0.00
2013-1-13,46.1,44.0,41.7,45.8,43.6,41.3,99,99,98,30.18,30.03,3,0,6,0.01
2013-1-14,54.9,47.6,37.8,52.0,42.9,32.2,100,85,54,30.32,29.93,6,1,11,0.09
2013-1-15,37.7,35.5,32.9,34.8,30.5,27.7,94,82,71,30.38,30.23,9,0,9,0.13
2013-1-16,33.6,32.4,31.7,33.1,31.4,30.2,98,96,93,30.24,29.86,4,0,9,0.43
2013-1-17,42.0,37.0,33.1,34.3,30.7,26.3,98,78,62,30.12,29.95,8,1,17,0.16
2013-1-18,33.6,26.9,19.2,27.7,15.0,7.2,84,62,40,30.50,30.04,12,2,16,0.00
2013-1-19,49.4,34.3,18.6,30.4,24.9,13.9,88,70,44,30.44,29.95,10,1,15,0.02
2013-1-20,51.8,38.6,28.3,33.1,23.6,12.9,90,58,28,30.08,29.74,12,3,20,0.00
2013-1-21,29.9,26.3,20.2,19.5,13.7,9.8,75,59,49,30.12,29.89,6,1,12,0.00
2013-1-22,24.2,17.2,11.6,10.3,1.0,-5.2,60,49,38,30.27,29.90,12,4,22,0.00
2013-1-23,19.2,12.2,6.2,4.0,0.4,-4.2,84,60,41,30.31,30.22,11,2,15,0.00
2013-1-24,23.5,14.6,5.0,6.5,2.8,-0.5,88,62,35,30.49,30.17,9,2,16,0.00
2013-1-25,21.7,15.3,7.8,14.7,5.8,-1.3,89,67,47,30.49,30.11,6,1,9,0.00
2013-1-26,26.8,16.4,5.0,11.3,8.0,2.2,92,71,48,30.44,30.11,12,1,15,0.01
2013-1-27,33.8,20.0,6.1,16.0,11.3,3.6,92,71,43,30.59,30.44,6,1,10,0.01
2013-1-28,32.2,27.5,16.2,31.3,25.2,12.7,97,91,81,30.54,30.05,3,0,6,0.00
2013-1-29,50.9,41.1,31.7,45.6,38.9,30.9,99,92,79,30.17,30.05,4,0,10,0.03
2013-1-30,64.9,48.5,39.5,60.9,47.6,39.0,100,97,83,30.08,29.35,9,1,18,0.23
2013-1-31,61.5,41.7,27.4,59.8,31.0,12.6,100,67,43,29.84,29.09,16,5,38,0.86
2013-2-1,29.1,25.6,21.3,17.9,13.7,8.8,83,61,44,30.29,29.83,11,3,19,0.00
2013-2-2,26.3,21.2,15.8,20.0,11.5,6.5,92,67,45,30.34,30.08,11,2,13,0.00
2013-2-3,29.3,22.7,16.5,21.7,18.7,14.6,94,85,69,30.08,29.84,7,1,12,0.05
2013-2-4,28.9,23.9,20.2,19.8,13.4,10.3,79,65,47,30.03,29.87,10,3,14,0.00
2013-2-5,30.2,27.4,23.4,27.7,23.8,17.8,95,86,78,30.00,29.92,6,0,7,0.01
2013-2-6,37.5,30.4,22.2,27.9,23.3,14.7,96,76,55,30.39,29.96,8,1,12,0.04
2013-2-7,32.3,25.7,16.3,21.4,15.7,12.5,88,67,49,30.53,30.34,8,1,11,0.00
2013-2-8,34.3,32.4,29.8,31.9,28.9,21.8,96,87,71,30.33,29.71,12,3,17,0.16
2013-2-9,32.0,26.7,19.5,30.0,17.3,7.4,97,69,46,30.41,29.81,12,3,26,0.09
2013-2-10,36.3,24.1,9.8,20.5,13.1,6.2,86,65,39,30.52,30.35,5,1,10,0.07
2013-2-11,39.8,33.7,27.8,39.5,31.8,20.3,99,93,72,30.35,29.69,3,0,7,0.13
2013-2-12,42.8,38.4,32.0,35.2,27.3,23.9,98,65,53,30.01,29.78,12,3,16,0.01
2013-2-13,41.9,32.5,21.7,31.1,26.2,20.0,96,79,57,29.99,29.70,4,0,9,0.00
2013-2-14,44.6,34.5,26.0,34.0,29.4,24.3,97,83,51,30.03,29.75,4,0,10,0.09
2013-2-15,54.4,38.7,24.8,35.3,29.7,23.6,98,73,44,30.05,29.94,9,1,12,0.07
2013-2-16,36.2,32.7,28.0,32.5,25.2,12.6,96,75,52,30.02,29.81,8,2,16,0.04
2013-2-17,30.6,25.3,17.9,13.0,7.6,1.5,54,47,36,30.09,29.76,19,5,29,0.00
2013-2-18,34.1,23.4,15.5,17.0,8.4,1.7,74,53,38,30.33,30.09,11,3,19,0.00
2013-2-19,41.5,31.4,19.0,38.8,27.1,15.4,98,85,60,30.23,29.73,9,1,17,0.36
2013-2-20,34.9,28.4,23.7,26.2,15.5,11.0,72,58,49,30.06,29.79,13,4,24,0.00
2013-2-21,34.4,26.8,22.3,17.4,14.7,11.5,70,60,49,30.34,30.04,13,4,25,0.00
2013-2-22,36.2,28.7,19.7,28.3,21.1,14.1,84,73,60,30.44,30.29,8,1,11,0.00
2013-2-23,42.0,37.6,32.6,41.2,36.3,28.3,97,95,84,30.29,29.85,6,1,13,0.10
2013-2-24,45.7,38.3,33.4,39.0,34.3,31.8,97,86,62,29.85,29.80,9,1,14,0.00
2013-2-25,42.9,36.2,25.6,30.0,27.4,23.6,92,71,58,30.27,30.17,10,1,11,0.00
2013-2-26,43.6,33.9,24.6,33.5,29.0,23.1,96,83,64,30.30,29.87,16,3,25,0.26
2013-2-27,47.0,42.0,35.2,44.7,38.8,33.4,97,89,77,29.87,29.54,15,4,27,0.35
2013-2-28,46.7,39.2,33.4,36.7,33.2,29.4,98,80,58,29.67,29.59,5,1,10,0.00
2013-3-1,45.0,36.7,27.3,32.3,28.9,25.7,97,74,57,29.83,29.66,9,2,16,0.00
2013-3-2,37.9,33.2,29.1,26.2,23.7,21.0,75,68,57,29.84,29.76,10,2,16,0.00
2013-3-3,36.0,30.6,27.0,21.3,19.6,17.3,71,63,53,29.84,29.74,10,3,20,0.00
2013-3-4,41.7,33.2,27.4,23.0,20.4,17.2,70,60,45,29.98,29.83,11,4,17,0.00
2013-3-5,47.7,37.4,30.5,28.2,24.8,21.8,73,61,45,30.06,29.97,11,2,12,0.00
2013-3-6,43.0,39.2,34.8,35.1,31.2,27.2,88,73,64,29.99,29.85,28,8,28,0.02
2013-3-7,43.4,37.5,31.9,33.4,28.7,25.1,93,71,56,30.12,29.98,13,4,18,0.01
2013-3-8,43.6,34.7,29.1,33.9,29.3,25.7,94,81,63,30.26,30.07,11,2,18,0.23
2013-3-9,58.0,41.5,29.3,28.4,24.0,17.7,86,54,21,30.35,30.24,9,1,12,0.00
2013-3-10,55.2,38.9,25.0,37.2,30.2,23.1,94,73,41,30.40,30.28,9,2,12,0.00
2013-3-11,57.3,44.8,34.9,48.1,40.1,32.0,98,85,56,30.35,30.08,8,1,11,0.00
2013-3-12,56.6,51.4,42.8,56.0,48.6,37.4,98,90,79,30.08,29.69,8,2,15,0.93
2013-3-13,47.9,40.7,30.7,37.1,30.0,23.5,94,67,43,29.94,29.83,9,2,14,0.00
2013-3-14,40.8,34.1,29.6,23.3,14.9,9.6,63,46,30,30.01,29.90,12,5,24,0.00
2013-3-15,46.0,37.3,27.0,31.8,21.9,12.0,65,54,43,30.03,29.75,9,2,13,0.00
2013-3-16,43.6,33.4,28.0,31.2,27.9,22.2,91,81,60,29.95,29.80,3,0,9,0.05
2013-3-17,36.9,31.6,26.9,29.7,21.8,18.2,94,68,48,30.34,29.96,6,1,13,0.01
2013-3-18,35.6,29.0,19.8,30.8,21.2,11.4,95,74,51,30.42,30.00,9,2,19,0.01
2013-3-19,48.1,37.9,32.3,37.1,31.7,19.4,97,81,47,29.98,29.72,12,2,21,0.53
2013-3-20,45.2,36.7,30.6,24.9,20.6,18.0,71,53,34,29.93,29.81,11,3,17,0.00
2013-3-21,37.9,32.5,28.0,28.7,19.1,13.0,91,59,36,29.87,29.67,12,2,12,0.00
2013-3-22,40.9,32.9,26.3,23.7,19.8,13.7,73,59,43,29.94,29.79,11,3,16,0.00
2013-3-23,45.4,37.3,30.8,23.7,21.4,19.3,66,53,38,29.98,29.88,9,3,17,0.01
2013-3-24,46.7,37.4,23.1,26.1,21.9,19.3,86,55,36,30.00,29.72,9,1,13,0.00
2013-3-25,38.0,35.8,32.9,34.8,30.7,25.9,95,82,62,29.73,29.51,7,1,13,0.20
2013-3-26,51.4,40.1,31.4,35.5,31.2,25.3,97,74,36,29.92,29.65,10,1,14,0.00
2013-3-27,51.6,39.3,26.8,34.1,28.5,24.0,92,68,35,30.05,29.91,11,2,13,0.00
2013-3-28,48.1,41.2,28.1,33.1,29.9,25.5,90,65,50,30.16,30.01,8,2,14,0.00
2013-3-29,52.6,43.9,29.8,32.8,29.8,26.0,86,59,40,30.19,30.11,9,2,14,0.00
2013-3-30,57.6,42.5,27.0,33.5,26.2,20.6,95,59,24,30.22,30.09,7,1,11,0.00
2013-3-31,57.1,42.0,28.4,43.4,33.8,24.1,97,75,39,30.16,29.73,12,1,16,0.24
2013-4-1,59.6,46.4,35.3,46.6,35.7,13.9,99,70,32,29.96,29.67,9,3,23,0.02
2013-4-2,43.0,36.1,26.7,20.3,15.4,12.1,73,44,30,30.13,29.96,12,3,21,0.00
2013-4-3,44.8,36.8,30.0,18.8,14.7,11.3,54,41,28,30.34,30.13,11,3,18,0.00
2013-4-4,53.2,39.8,24.3,26.3,20.6,13.9,77,48,32,30.43,30.10,9,1,15,0.00
2013-4-5,62.7,47.9,35.4,31.0,25.4,18.8,74,45,20,30.10,29.76,12,2,16,0.00
2013-4-6,53.0,41.2,31.7,25.0,17.8,11.4,69,41,19,30.33,30.05,9,2,14,0.00
2013-4-7,63.0,48.4,32.6,42.1,34.7,26.3,83,61,37,30.33,30.01,10,2,18,0.00
2013-4-8,76.7,59.5,40.4,50.3,44.1,38.5,95,62,28,30.10,29.98,6,1,12,0.00
2013-4-9,82.0,67.0,49.3,54.7,46.4,36.7,92,54,20,30.00,29.91,13,2,22,0.00
2013-4-10,85.8,65.0,53.3,60.1,54.0,47.4,97,71,39,29.95,29.81,13,1,22,0.47
2013-4-11,59.5,55.5,47.4,57.9,51.9,42.5,99,88,73,30.02,29.80,12,2,15,0.01
2013-4-12,47.6,43.3,41.1,42.7,40.9,39.5,97,91,78,29.99,29.74,12,3,19,0.48
2013-4-13,58.2,47.6,36.8,43.0,37.9,34.5,98,72,45,30.00,29.78,7,1,12,0.00
2013-4-14,59.3,49.4,37.1,40.7,34.3,29.8,94,60,34,30.22,30.00,9,2,15,0.00
2013-4-15,59.6,50.3,40.7,39.5,34.5,29.2,72,55,45,30.38,30.22,9,2,12,0.00
2013-4-16,70.0,53.8,46.2,56.8,46.0,37.3,88,76,59,30.38,30.22,5,1,14,0.00
2013-4-17,71.5,61.4,48.8,57.0,39.2,31.1,92,48,23,30.30,30.14,14,2,16,0.00
2013-4-18,57.7,51.2,42.1,51.8,45.7,39.4,95,82,63,30.34,30.10,10,2,14,0.01
2013-4-19,77.1,64.8,53.2,65.9,60.1,51.1,97,86,65,30.10,29.62,9,2,19,0.84
2013-4-20,56.6,50.3,43.5,50.6,35.9,25.1,94,60,37,30.34,29.72,16,3,20,0.12
2013-4-21,54.3,43.5,30.6,30.4,24.2,20.0,74,48,30,30.64,30.35,13,2,15,0.00
2013-4-22,52.8,43.3,30.8,39.0,32.3,28.3,91,67,47,30.66,30.50,17,3,20,0.00
2013-4-23,50.1,44.0,38.9,42.3,37.2,32.3,91,77,70,30.50,30.16,7,2,11,0.00
2013-4-24,72.6,54.6,33.8,55.3,46.2,32.8,98,75,52,30.16,29.82,7,1,14,0.00
2013-4-25,63.8,53.0,40.1,55.0,33.4,26.1,85,50,24,30.29,29.88,15,2,18,0.00
2013-4-26,65.0,50.2,35.1,38.0,32.3,24.9,91,56,23,30.44,30.29,8,1,16,0.00
2013-4-27,70.5,53.3,33.8,38.6,34.5,31.2,91,54,27,30.46,30.28,5,1,16,0.00
2013-4-28,71.7,56.3,37.1,45.2,38.9,33.6,92,56,34,30.34,30.19,5,1,10,0.00
2013-4-29,55.0,51.4,49.5,51.1,49.2,42.2,97,92,62,30.25,30.17,8,1,11,0.17
2013-4-30,65.0,55.3,41.9,51.2,42.5,23.1,97,67,24,30.36,30.21,11,2,15,0.01
2013-5-1,67.5,52.5,35.0,44.4,36.9,28.7,91,61,24,30.50,30.36,11,2,16,0.00
2013-5-2,73.0,55.8,37.3,50.1,42.7,36.3,98,66,33,30.49,30.34,6,1,10,0.00
2013-5-3,66.3,55.3,43.1,43.7,40.5,34.5,89,60,36,30.46,30.35,9,2,16,0.00
2013-5-4,70.3,54.4,38.4,46.9,42.2,37.4,97,68,37,30.40,30.22,9,2,14,0.00
2013-5-5,65.3,51.7,40.0,47.0,41.4,37.6,94,70,38,30.31,30.22,10,2,14,0.00
2013-5-6,68.5,54.6,39.0,54.7,47.7,37.0,96,79,59,30.28,30.15,7,1,14,0.00
2013-5-7,72.6,60.0,44.9,60.0,53.2,43.8,98,80,62,30.19,30.08,9,2,16,0.00
2013-5-8,68.3,60.9,55.0,63.6,58.9,54.2,99,93,78,30.10,29.95,6,1,14,1.91
2013-5-9,68.6,59.3,53.4,58.9,55.7,52.8,99,89,69,30.00,29.92,2,0,6,0.12
2013-5-10,80.2,65.0,48.6,62.9,57.1,48.1,100,78,47,30.03,29.90,8,0,8,0.08
2013-5-11,70.3,63.8,57.8,65.5,62.2,57.2,99,95,83,29.94,29.72,4,0,7,0.97
2013-5-12,64.6,57.8,47.8,58.1,42.6,29.0,99,61,31,29.98,29.70,8,2,16,0.00
2013-5-13,54.2,46.6,35.7,36.7,31.8,28.2,92,58,38,30.15,29.98,6,1,13,0.00
2013-5-14,61.5,47.1,31.1,35.8,31.2,24.2,97,60,25,30.18,30.05,5,1,10,0.00
2013-5-15,74.3,57.8,39.4,59.6,48.9,35.3,90,73,55,30.10,29.71,5,1,10,0.00
2013-5-16,82.3,65.6,52.2,62.7,54.7,46.3,99,73,30,29.87,29.73,5,0,9,0.00
2013-5-17,73.4,59.9,46.7,49.9,45.5,40.7,90,62,32,30.22,29.87,7,1,12,0.00
2013-5-18,63.2,56.3,48.5,56.9,51.5,45.0,91,84,70,30.31,30.22,6,0,8,0.02
2013-5-19,58.9,56.8,54.6,58.0,55.8,53.5,98,97,90,30.31,30.18,5,1,11,0.16
2013-5-20,78.1,66.0,56.6,69.1,62.4,56.0,100,89,72,30.20,29.98,3,0,5,0.00
2013-5-21,87.4,71.8,57.6,73.2,66.4,57.1,100,85,60,30.00,29.86,5,0,9,0.00
2013-5-22,86.1,72.1,63.0,74.8,68.0,62.6,100,88,63,29.93,29.82,5,1,8,0.00
2013-5-23,75.2,68.6,64.0,72.0,67.6,62.5,100,97,82,29.90,29.76,6,0,9,1.03
2013-5-24,63.2,53.0,43.1,63.0,51.0,41.1,100,93,77,30.03,29.72,11,2,18,0.23
2013-5-25,56.8,49.8,42.8,44.7,40.4,35.1,96,72,49,30.07,29.97,12,2,24,0.36
2013-5-26,68.1,55.9,43.5,42.3,38.7,33.8,84,55,31,30.24,30.04,13,2,15,0.00
2013-5-27,74.9,56.7,36.6,48.1,41.8,35.3,98,63,29,30.29,30.16,6,1,9,0.00
2013-5-28,59.0,54.1,46.0,56.9,52.3,44.8,99,94,80,30.25,30.14,2,0,6,0.29
2013-5-29,86.3,67.9,56.5,72.4,63.6,56.2,100,88,59,30.15,30.02,2,0,7,0.02
2013-5-30,92.1,76.4,61.3,71.8,66.4,61.0,100,75,43,30.16,30.07,3,0,7,0.00
2013-5-31,91.5,76.6,62.6,74.1,66.3,62.0,100,74,42,30.14,30.00,3,0,7,0.00
2013-6-1,91.1,76.5,61.2,73.2,67.7,60.4,100,77,52,30.04,29.90,4,0,7,0.00
2013-6-2,85.7,76.2,65.4,73.0,69.2,64.7,100,80,63,29.92,29.78,5,1,9,0.00
2013-6-3,80.5,71.2,64.8,70.5,65.8,53.2,99,84,61,29.91,29.81,4,0,8,0.26
2013-6-4,76.1,63.8,51.5,52.5,47.7,42.6,85,58,34,30.14,29.91,9,1,11,0.00
2013-6-5,75.2,62.3,46.0,54.4,48.3,41.6,89,63,39,30.23,30.11,5,1,9,0.00
2013-6-6,70.2,60.3,50.6,60.6,55.7,49.3,98,86,57,30.16,30.00,8,1,9,0.24
2013-6-7,63.2,60.9,59.1,62.3,60.1,58.2,98,97,96,30.00,29.64,6,1,17,2.33
2013-6-8,75.8,65.8,56.8,66.4,61.8,56.2,100,88,71,30.08,29.63,8,0,15,0.13
2013-6-9,82.2,68.0,53.6,66.2,59.7,53.0,100,78,46,30.20,30.08,5,0,7,0.01
2013-6-10,68.4,64.7,61.0,68.4,63.5,59.8,100,96,91,30.17,29.80,11,1,16,1.63
2013-6-11,77.9,71.8,64.6,68.9,66.4,62.0,100,84,66,29.80,29.66,4,1,14,0.01
2013-6-12,80.2,70.2,60.5,62.1,58.6,55.2,90,69,44,29.86,29.75,8,1,13,0.00
2013-6-13,63.2,60.7,56.4,61.9,59.1,55.3,98,95,90,29.86,29.45,7,1,14,1.09
2013-6-14,74.7,60.1,53.4,62.8,55.9,50.5,97,87,59,29.93,29.56,8,1,15,0.28
2013-6-15,81.0,66.0,51.7,62.5,57.4,51.2,100,77,44,30.05,29.94,6,0,9,0.01
2013-6-16,80.1,66.7,53.5,66.7,60.3,52.9,99,82,57,30.02,29.81,4,0,11,0.00
2013-6-17,84.1,70.5,59.6,70.9,65.4,59.0,100,85,57,29.94,29.85,3,0,10,0.14
2013-6-18,79.6,68.6,60.3,72.5,65.9,59.7,100,92,71,29.92,29.82,3,0,13,0.25
2013-6-19,77.3,65.9,55.9,60.8,55.1,48.6,98,72,40,30.18,29.90,7,1,12,0.00
2013-6-20,80.8,66.8,51.5,64.3,58.1,50.4,99,76,47,30.28,30.18,4,0,6,0.00
2013-6-21,83.4,68.7,52.8,64.4,58.6,51.7,98,73,47,30.32,30.24,3,0,7,0.00
2013-6-22,84.8,70.0,54.0,70.5,62.7,52.9,98,79,56,30.28,30.12,3,0,9,0.00
2013-6-23,87.3,74.4,60.4,73.1,68.1,59.5,99,82,58,30.21,30.07,3,0,7,0.00
2013-6-24,91.9,75.8,66.6,74.5,69.6,62.6,100,83,50,30.09,29.97,4,0,9,0.12
2013-6-25,90.1,75.5,62.9,76.2,69.3,62.5,100,83,55,30.03,29.83,4,0,9,0.02
2013-6-26,86.8,76.5,68.8,72.2,68.7,64.6,95,78,59,29.88,29.80,4,0,7,0.00
2013-6-27,88.3,75.8,66.3,74.2,70.1,65.3,99,84,61,29.84,29.55,3,0,15,1.79
2013-6-28,85.4,75.6,67.4,73.3,70.1,65.9,99,85,61,29.57,29.48,3,0,9,0.14
2013-6-29,85.0,73.2,63.9,70.9,66.9,63.3,100,83,55,29.71,29.50,4,0,8,0.00
2013-6-30,83.2,73.4,64.5,76.4,70.0,63.5,98,90,77,29.91,29.71,3,0,7,0.02
2013-7-1,76.5,73.7,69.8,75.0,72.4,69.5,100,96,89,30.04,29.89,0,0,0,1.75
2013-7-2,84.1,76.5,72.5,75.9,73.1,70.4,98,90,72,30.19,30.04,0,0,0,0.01
2013-7-3,84.6,76.0,69.6,78.0,72.8,68.8,99,90,73,30.25,30.17,3,0,5,0.26
2013-7-4,88.2,78.2,70.1,77.2,73.4,69.7,100,86,66,30.27,30.16,4,0,8,0.00
2013-7-5,90.4,79.5,68.6,76.9,72.9,68.1,100,82,56,30.23,30.10,4,0,8,0.00
2013-7-6,92.5,80.8,70.4,77.3,73.9,69.8,99,81,56,30.16,30.04,2,0,6,0.00
2013-7-7,91.7,80.1,70.2,78.7,73.9,69.3,100,83,61,30.09,29.95,3,0,10,0.23
2013-7-8,86.7,75.8,66.7,74.5,70.1,66.4,100,84,62,30.07,29.99,0,0,1,0.01
2013-7-9,86.1,75.3,65.2,75.0,69.9,64.6,99,85,66,30.09,30.00,2,0,3,0.06
2013-7-11,74.7,74.7,74.7,62.1,62.1,62.1,65,65,65,29.93,29.93,0,0,1,0.00
2013-7-13,83.0,76.4,74.2,76.2,74.4,73.6,98,94,80,30.30,30.22,7,1,10,0.07
2013-7-14,90.3,79.7,72.7,78.0,74.5,71.5,100,86,59,30.36,30.25,0,0,0,0.00
2013-7-15,93.0,80.7,68.9,80.7,74.2,68.3,100,82,59,30.28,30.15,3,0,8,0.00
2013-7-16,92.9,80.4,67.9,77.2,71.7,67.3,99,77,47,30.23,30.14,4,0,10,0.00
2013-7-17,94.2,81.3,69.1,77.7,72.5,68.2,98,77,46,30.21,30.07,4,0,7,0.00
2013-7-18,95.9,83.2,71.4,79.8,75.6,70.5,99,80,54,30.09,29.97,0,0,1,0.00
2013-7-19,94.7,83.1,72.1,81.4,76.3,71.5,99,82,57,29.99,29.81,4,0,10,0.02
2013-7-20,91.1,79.2,70.9,78.2,73.5,70.0,99,84,58,29.86,29.75,6,0,12,0.05
2013-7-21,87.3,77.5,69.5,73.1,70.7,68.0,100,81,57,29.97,29.85,0,0,6,0.01
2013-7-22,85.0,75.2,69.4,76.8,71.6,66.9,99,89,72,29.97,29.80,2,0,10,0.15
2013-7-23,84.2,75.4,69.6,77.3,72.6,68.7,100,92,74,29.80,29.59,3,0,12,1.24
2013-7-24,78.3,71.5,63.5,70.2,64.5,53.9,99,80,60,29.96,29.65,9,0,12,0.00
2013-7-25,69.7,63.9,56.7,61.9,57.3,52.7,94,80,69,30.07,29.95,3,0,11,0.00
2013-7-26,82.5,69.2,59.4,65.8,61.2,58.2,96,78,48,30.07,30.01,0,0,1,0.00
2013-7-27,84.0,70.5,56.6,70.3,63.7,55.8,100,81,58,30.07,29.94,0,0,0,0.01
2013-7-28,76.5,68.9,63.7,72.5,67.2,61.9,99,95,84,30.00,29.90,0,0,4,0.96
2013-7-29,81.4,70.7,59.5,68.3,62.6,56.3,100,79,43,30.14,29.97,2,0,8,0.01
2013-7-30,79.8,67.2,54.6,64.7,59.6,53.9,99,79,52,30.21,30.13,4,0,8,0.00
2013-7-31,81.2,68.9,56.1,67.9,61.8,55.4,99,80,51,30.19,30.05,0,0,0,0.01
2013-8-1,68.5,66.2,63.8,68.2,65.6,62.7,99,98,95,30.05,29.84,3,0,8,0.37
2013-8-2,82.6,71.4,60.9,69.7,65.2,60.6,100,83,53,29.94,29.83,4,0,7,0.01
2013-8-3,75.1,66.7,60.7,68.6,64.4,59.4,98,93,78,29.94,29.88,0,0,1,0.09
2013-8-4,78.2,67.2,56.4,63.4,59.4,54.7,99,79,48,30.02,29.89,11,1,14,0.03
2013-8-5,78.0,64.2,51.3,62.8,55.0,50.2,99,76,41,30.10,30.01,0,0,1,0.01
2013-8-6,79.8,67.4,53.2,65.1,59.6,52.4,99,78,50,30.14,30.06,0,0,0,0.00
2013-8-7,76.5,69.6,63.9,69.8,66.4,61.7,97,90,77,30.15,30.06,0,0,8,0.02
2013-8-8,81.3,72.6,67.7,77.1,71.0,67.1,100,95,80,30.07,29.99,3,0,8,0.12
2013-8-9,85.0,75.4,70.7,77.1,73.6,70.4,100,95,77,30.01,29.82,0,0,6,0.15
2013-8-10,83.2,72.5,63.6,70.9,67.2,62.4,100,85,57,30.07,29.90,0,0,0,0.01
2013-8-11,80.5,68.5,55.7,69.1,62.1,55.1,100,82,54,30.15,30.03,0,0,0,0.11
2013-8-12,82.7,71.4,65.1,68.7,65.7,60.8,100,84,51,30.06,29.94,0,0,1,0.15
2013-8-13,80.1,69.6,64.8,71.9,67.2,63.9,100,93,72,29.95,29.71,1,0,8,0.94
2013-8-14,72.4,63.4,53.8,64.3,54.9,51.2,98,76,54,30.09,29.80,8,1,15,0.01
2013-8-15,76.1,62.0,48.3,59.3,53.7,47.5,99,78,44,30.18,30.09,0,0,0,0.00
2013-8-16,79.2,65.2,51.1,61.6,56.2,50.3,99,76,44,30.23,30.16,1,0,2,0.00
2013-8-17,81.4,67.2,53.4,66.8,59.2,52.8,99,79,44,30.30,30.23,0,0,0,0.00
2013-8-18,72.4,65.9,60.4,66.7,62.4,59.1,97,89,70,30.28,30.16,0,0,0,0.02
2013-8-19,74.5,66.7,58.6,67.6,62.8,58.1,100,88,63,30.17,30.06,0,0,0,0.00
2013-8-20,86.1,71.8,59.0,71.1,65.6,58.4,100,83,54,30.16,30.08,2,0,4,0.00
2013-8-21,86.5,72.7,59.9,71.0,65.3,59.3,100,81,47,30.21,30.08,0,0,1,0.01
2013-8-22,78.9,70.5,66.5,74.9,69.3,65.7,100,96,83,30.09,29.90,0,0,1,1.53
2013-8-23,77.7,69.6,62.7,67.6,64.1,58.5,100,84,52,30.13,29.91,5,0,9,0.00
2013-8-24,78.4,66.3,55.5,61.0,56.3,53.2,97,73,46,30.38,30.13,6,1,10,0.00
2013-8-25,80.2,64.9,51.7,63.1,57.4,51.2,99,80,47,30.43,30.26,3,0,6,0.00
2013-8-26,81.4,68.7,58.9,71.8,64.5,58.1,98,87,65,30.27,29.95,2,0,6,0.02
2013-8-27,86.2,75.0,66.7,73.7,69.4,66.1,99,84,60,29.94,29.87,5,0,9,0.01
2013-8-28,74.2,70.6,66.1,73.2,69.8,65.5,100,98,91,29.91,29.85,1,0,1,0.38
2013-8-29,78.6,71.0,65.1,73.1,69.0,64.9,100,94,79,30.05,29.90,0,0,1,0.00
2013-8-30,80.5,72.4,67.2,73.7,69.2,66.1,98,90,75,30.04,29.88,0,0,0,0.00
2013-8-31,84.9,75.5,68.9,77.5,72.7,68.3,99,92,76,29.89,29.80,2,0,5,0.02
2013-9-1,83.5,75.7,70.2,77.2,73.0,69.9,100,92,77,29.86,29.79,1,0,9,0.02
2013-9-2,75.2,71.1,68.7,73.6,70.7,68.4,100,98,92,29.82,29.72,0,0,1,1.15
2013-9-3,78.9,70.7,59.4,69.6,64.8,58.5,100,84,55,29.93,29.73,4,0,12,0.00
2013-9-4,78.7,66.1,54.9,64.6,59.7,54.3,100,82,53,30.04,29.92,4,0,8,0.00
2013-9-5,75.3,63.5,53.1,64.2,55.7,47.1,100,79,40,30.18,29.97,10,1,12,0.00
2013-9-6,68.9,56.7,45.9,51.6,47.4,43.8,97,74,42,30.29,30.17,3,0,11,0.00
2013-9-7,76.4,60.4,44.7,62.6,52.5,43.9,99,78,43,30.17,29.93,0,0,1,0.00
2013-9-8,78.6,66.4,55.8,68.1,58.4,48.0,99,77,46,30.10,29.86,6,0,15,0.00
2013-9-9,73.3,61.1,45.5,63.5,53.9,44.4,97,79,55,30.26,30.11,6,0,8,0.00
2013-9-10,84.6,72.6,64.2,76.9,69.1,61.7,98,89,74,30.19,30.07,0,0,1,0.00
2013-9-11,91.8,78.0,67.0,79.9,73.6,66.7,100,88,65,30.14,29.99,5,0,7,0.00
2013-9-12,82.7,72.9,66.7,77.8,71.4,66.3,100,95,77,30.01,29.71,3,0,14,0.67
2013-9-13,73.6,65.3,54.2,66.7,60.3,50.7,99,85,62,29.90,29.67,7,0,13,0.06
2013-9-14,62.6,55.0,44.7,51.1,47.9,43.6,96,78,62,30.18,29.90,10,1,13,0.00
2013-9-15,70.1,54.9,40.5,57.8,48.7,39.7,99,82,50,30.25,30.11,3,0,7,0.00
2013-9-16,68.9,59.3,53.0,58.9,54.8,48.7,99,86,61,30.28,30.07,5,0,11,0.07
2013-9-17,63.9,52.5,40.1,49.1,43.6,39.1,98,74,46,30.47,30.28,7,1,12,0.00
2013-9-18,68.2,52.7,39.4,53.0,45.9,38.6,99,81,48,30.39,30.22,3,0,6,0.00
2013-9-19,73.1,56.3,41.1,58.1,49.8,40.3,99,82,51,30.23,30.10,2,0,6,0.00
2013-9-20,77.4,60.5,46.0,64.2,55.3,45.5,100,85,56,30.12,30.00,0,0,0,0.01
2013-9-21,76.6,63.4,50.5,65.5,58.4,50.0,100,86,50,30.04,29.69,1,0,7,0.57
2013-9-22,65.9,59.7,49.2,62.6,52.2,43.7,98,78,52,29.96,29.69,10,1,14,0.16
2013-9-23,63.1,53.2,42.1,48.2,44.2,40.5,96,73,53,30.08,29.96,5,1,14,0.00
2013-9-24,71.4,54.3,39.4,52.1,45.9,38.1,97,76,44,30.10,29.92,4,0,9,0.00
2013-9-25,70.5,54.7,41.1,54.3,47.7,40.0,99,80,46,30.00,29.90,0,0,0,0.00
2013-9-26,71.6,56.9,44.9,59.8,52.8,44.2,100,88,63,30.13,29.97,0,0,2,0.01
2013-9-27,69.0,57.3,46.4,57.6,52.4,45.6,99,85,58,30.30,30.13,0,0,0,0.00
2013-9-28,70.6,59.4,50.3,57.5,53.1,49.2,98,82,53,30.35,30.26,5,0,8,0.00
2013-9-29,69.8,56.8,45.5,58.8,52.0,45.0,100,86,60,30.26,30.09,0,0,0,0.00
2013-9-30,72.6,56.4,44.9,57.9,51.0,44.4,100,84,51,30.12,30.00,2,0,6,0.01
2013-10-1,78.2,60.8,46.7,64.0,55.0,46.2,100,84,58,30.05,29.93,5,0,7,0.01
2013-10-2,81.9,64.5,50.0,65.5,58.2,49.5,100,83,54,30.05,29.95,0,0,2,0.00
2013-10-3,77.5,64.0,52.2,66.3,58.8,48.6,100,85,38,30.15,30.05,0,0,1,0.00
2013-10-4,83.7,68.3,56.2,69.4,63.2,55.8,100,86,57,30.09,29.99,0,0,0,0.00
2013-10-5,80.0,70.1,61.2,69.7,65.6,60.6,100,86,68,30.10,30.02,0,0,0,0.00
2013-10-6,69.5,66.3,63.9,67.1,65.0,62.9,98,96,92,30.10,30.02,7,1,13,0.05
2013-10-7,75.9,65.1,55.3,71.7,63.2,48.3,98,94,74,30.02,29.75,8,1,19,0.35
2013-10-8,65.2,53.6,42.7,51.9,47.4,42.2,100,82,52,30.35,30.03,8,1,14,0.01
2013-10-9,59.8,51.2,41.8,49.4,45.7,40.7,97,82,62,30.42,30.31,10,1,14,0.00
2013-10-10,59.6,55.4,50.4,56.2,52.0,46.4,97,88,78,30.31,30.09,7,1,9,0.11
2013-10-11,63.9,60.8,57.0,61.4,58.0,54.8,96,90,83,30.10,30.02,6,1,12,0.11
2013-10-12,71.9,62.7,48.6,58.3,51.1,41.2,92,68,36,30.28,30.08,12,2,16,0.01
2013-10-13,64.5,58.7,50.3,54.4,52.0,48.6,95,79,65,30.40,30.28,13,2,15,0.00
2013-10-14,67.0,54.1,43.7,53.5,48.9,42.9,99,84,60,30.39,30.25,3,0,7,0.00
2013-10-15,71.1,54.4,43.9,58.6,47.3,39.7,100,80,36,30.29,30.14,7,1,10,0.00
2013-10-16,66.0,56.7,45.2,58.8,53.2,43.2,97,89,73,30.15,29.94,3,0,5,0.00
2013-10-17,72.1,63.9,57.5,63.2,60.7,56.4,99,90,70,29.94,29.71,2,0,6,0.03
2013-10-18,65.0,56.8,42.0,63.1,47.4,40.4,97,72,51,30.02,29.71,8,2,15,0.00
2013-10-19,61.3,49.6,37.7,51.9,44.7,36.9,99,85,57,30.02,29.79,3,0,6,0.06
2013-10-20,61.0,50.0,38.3,49.7,41.1,36.8,98,74,41,30.10,29.80,12,1,19,0.00
2013-10-21,66.1,47.9,33.8,47.9,39.3,32.9,99,76,40,30.18,30.02,5,0,10,0.01
2013-10-22,61.2,47.9,38.3,52.6,43.0,35.4,99,84,62,30.01,29.80,3,0,9,0.00
2013-10-23,54.8,42.6,33.8,42.7,36.6,32.8,98,81,57,29.85,29.67,4,0,10,0.00
2013-10-24,51.7,41.9,31.6,36.8,32.5,28.6,97,71,42,30.07,29.82,9,1,14,0.01
2013-10-25,53.3,42.7,32.3,36.5,32.8,29.5,92,69,46,30.27,30.06,7,1,18,0.00
2013-10-26,53.8,39.7,26.5,37.1,31.2,25.3,98,75,43,30.27,29.93,10,1,16,0.00
2013-10-27,56.1,46.3,33.1,37.7,34.4,30.8,91,65,45,30.17,29.90,6,1,13,0.00
2013-10-28,59.5,42.1,27.9,38.9,33.6,26.7,98,76,41,30.35,30.17,5,0,11,0.00
2013-10-29,56.7,43.0,33.2,38.6,34.9,31.7,95,76,43,30.45,30.35,4,0,7,0.00
2013-10-30,58.1,47.0,33.0,51.2,42.7,31.3,95,85,76,30.40,30.21,2,0,4,0.00
2013-10-31,63.9,56.2,48.8,59.7,54.1,47.3,96,93,83,30.26,29.82,4,0,7,0.05
2013-11-1,69.1,61.4,47.2,64.0,56.8,46.4,97,86,60,29.82,29.57,9,1,18,0.24
2013-11-2,65.5,51.8,40.2,50.9,45.5,38.4,99,81,52,29.83,29.66,6,0,10,0.00
2013-11-3,49.2,41.8,31.5,42.9,31.4,20.5,98,68,44,30.50,29.83,12,2,16,0.00
2013-11-4,45.4,33.7,22.6,26.0,20.8,16.5,90,63,32,30.70,30.50,7,1,14,0.00
2013-11-5,55.0,42.7,28.2,42.1,35.1,24.2,90,76,58,30.69,30.51,5,0,9,0.00
2013-11-6,63.0,51.6,41.3,50.1,45.5,39.0,94,81,59,30.53,30.10,7,0,11,0.00
2013-11-7,58.0,48.4,34.4,57.1,45.7,32.1,98,90,70,30.10,29.80,6,0,21,0.11
2013-11-8,46.8,40.3,32.6,37.4,31.2,27.8,96,71,51,30.27,29.99,8,2,16,0.02
2013-11-9,49.3,37.2,25.5,33.8,29.0,24.3,97,75,46,30.34,30.03,7,0,8,0.00
2013-11-10,56.0,43.6,29.8,40.0,32.8,28.6,98,69,48,30.11,29.89,10,2,21,0.00
2013-11-11,52.7,45.6,36.6,36.8,31.6,26.7,72,58,47,30.25,29.99,7,1,11,0.00
2013-11-12,48.9,35.4,25.5,39.4,24.5,16.9,89,65,52,30.35,29.96,13,2,18,0.02
2013-11-13,38.2,29.0,21.5,18.3,16.7,13.3,87,62,39,30.43,30.33,10,2,24,0.00
2013-11-14,51.2,33.9,20.9,23.2,19.8,17.7,91,61,27,30.32,30.21,8,1,14,0.00
2013-11-15,56.3,36.9,24.2,32.0,25.7,21.0,91,68,31,30.29,30.18,4,0,6,0.00
2013-11-16,59.0,46.1,33.4,46.8,41.3,29.1,98,84,58,30.36,30.28,3,0,7,0.06
2013-11-17,60.4,53.8,47.1,58.1,52.4,45.7,99,95,89,30.29,29.79,6,1,10,0.03
2013-11-18,62.9,56.9,47.8,60.8,42.3,28.9,97,62,37,29.85,29.63,9,2,14,0.19
2013-11-19,47.7,41.4,31.6,31.0,26.0,22.2,69,54,48,30.39,29.85,11,3,20,0.00
2013-11-20,44.6,33.6,23.8,22.4,17.6,8.7,80,55,23,30.65,30.39,9,2,18,0.00
2013-11-21,50.3,37.0,20.9,39.2,28.8,17.0,89,73,58,30.65,30.42,8,1,11,0.00
2013-11-22,54.6,48.5,43.7,49.8,45.5,38.9,97,89,81,30.42,29.97,4,0,8,0.07
2013-11-23,51.7,39.4,28.3,48.1,27.0,8.5,89,62,42,30.12,29.96,10,3,19,0.00
2013-11-24,27.9,23.9,20.9,11.6,5.4,2.7,53,45,38,30.45,30.10,16,4,22,0.00
2013-11-25,34.6,27.0,20.0,17.2,13.5,7.8,75,57,46,30.53,30.37,5,1,9,0.00
2013-11-26,45.2,33.5,30.2,44.4,26.6,16.4,97,77,55,30.37,29.74,18,1,18,0.69
2013-11-27,55.7,42.3,31.8,55.4,39.1,20.8,99,89,63,29.83,29.42,11,2,21,1.21
2013-11-28,34.4,29.3,24.3,24.5,17.6,13.0,82,62,43,30.51,29.83,8,2,20,0.00
2013-11-29,36.4,28.9,21.6,24.3,21.4,16.8,91,75,55,30.77,30.50,6,1,11,0.00
2013-11-30,34.4,26.8,15.3,28.7,20.0,12.6,90,76,55,30.79,30.42,7,1,10,0.00
2013-12-1,46.3,35.3,25.6,33.4,29.2,24.0,96,79,57,30.42,30.06,4,0,6,0.00
2013-12-2,47.2,36.6,28.2,33.8,30.7,26.7,94,80,57,30.06,29.91,1,0,4,0.00
2013-12-3,51.8,36.4,28.0,37.5,31.5,26.5,96,84,54,30.05,29.91,3,0,6,0.00
2013-12-4,49.0,40.5,29.3,42.2,36.4,28.1,97,86,72,30.15,30.04,3,0,7,0.00
2013-12-5,52.6,49.0,45.3,52.3,48.3,42.0,99,98,88,30.14,29.96,1,0,7,0.04
2013-12-6,53.5,44.0,35.8,53.5,42.5,34.3,100,94,86,30.20,29.89,10,1,18,0.87
2013-12-7,37.3,32.6,24.6,34.4,28.3,20.3,95,84,68,30.56,30.13,6,1,14,0.03
2013-12-8,30.6,26.9,22.1,27.5,20.8,17.2,95,78,62,30.62,30.39,4,0,9,0.00
2013-12-9,35.4,32.8,28.9,34.7,31.8,27.6,98,96,94,30.39,30.02,6,1,12,0.33
2013-12-10,33.4,30.3,24.9,31.2,27.8,18.3,98,91,74,30.18,29.94,5,0,9,0.01
2013-12-11,31.6,24.7,17.4,19.7,17.4,13.9,90,74,53,30.38,30.18,8,1,11,0.00
2013-12-12,26.5,21.6,12.1,19.0,11.5,6.9,84,65,48,30.41,30.22,7,1,11,0.00
2013-12-13,33.4,21.5,7.6,20.1,14.3,4.8,91,75,54,30.37,30.19,8,1,14,0.00
2013-12-14,28.9,24.3,20.5,27.6,20.6,18.5,95,86,76,30.50,29.80,9,2,17,0.00
2013-12-15,37.1,31.2,25.1,33.1,27.0,21.6,96,85,67,29.89,29.60,9,2,18,0.01
2013-12-16,30.9,22.9,11.3,23.2,12.7,8.0,89,66,46,30.27,29.88,10,2,13,0.00
2013-12-17,26.1,19.3,12.6,23.6,16.3,10.5,93,88,77,30.26,29.99,4,0,6,0.00
2013-12-18,35.4,22.6,10.5,24.8,17.6,8.4,95,82,60,30.23,29.99,8,1,15,0.00
2013-12-19,41.8,26.2,13.4,29.7,21.4,11.5,96,83,58,30.24,30.07,4,0,5,0.08
2013-12-20,48.1,35.0,25.5,34.8,30.0,24.3,96,83,56,30.15,30.00,3,0,5,0.19
2013-12-21,56.1,40.1,31.0,48.0,37.1,29.9,97,90,72,30.05,29.94,2,0,5,0.01
2013-12-22,65.8,55.0,38.4,61.9,53.2,37.4,100,94,83,29.98,29.83,13,1,13,0.03
2013-12-23,56.7,49.4,37.9,56.7,47.9,30.1,100,95,71,30.20,29.94,7,1,19,0.66
2013-12-24,37.6,32.4,23.3,30.1,23.4,13.3,91,69,59,30.41,30.15,9,2,15,0.00
2013-12-25,25.6,21.7,16.1,17.1,11.4,7.7,74,64,52,30.58,30.42,6,1,13,0.00
2013-12-26,33.4,24.9,16.7,28.2,21.1,14.3,93,85,75,30.46,30.22,5,0,10,0.01
2013-12-27,39.0,26.6,18.0,24.7,21.0,16.3,96,81,53,30.41,30.31,7,1,9,0.01
2013-12-28,52.9,31.9,18.7,33.6,25.3,17.3,97,80,42,30.33,30.11,6,1,12,0.00
2013-12-29,41.8,36.0,28.8,41.0,34.5,26.9,98,94,91,30.12,29.49,8,1,15,0.90
2013-12-30,43.3,33.2,21.4,37.6,26.6,12.7,98,78,60,30.22,29.76,9,2,13,0.00
2013-12-31,30.2,23.5,15.2,25.8,15.0,10.7,87,70,56,30.34,30.09,9,1,15,0.00
2014-1-1,31.5,26.0,18.0,22.5,18.0,10.8,85,72,61,30.44,30.26,3,0,7,0.00
2014-1-2,29.4,24.9,14.7,22.7,20.2,12.3,92,83,70,30.26,29.72,9,2,16,0.00